createdAt,value
2019-06-20T00:00:13.618Z,99378.52
2019-06-20T00:05:16.824Z,99355.32
2019-06-20T00:10:20.028Z,99373.02
2019-06-20T00:15:23.267Z,99368.16
2019-06-20T00:20:26.498Z,99368.16
2019-06-20T00:25:30.355Z,99368.25
2019-06-20T00:30:33.613Z,99354.11
2019-06-20T00:35:36.841Z,99354.11
2019-06-20T00:40:40.050Z,99365.70
2019-06-20T00:45:43.280Z,99367.08
2019-06-20T00:50:46.518Z,99370.44
2019-06-20T00:55:49.766Z,99349.83
2019-06-20T01:00:53.006Z,99349.83
2019-06-20T01:05:56.225Z,99348.00
2019-06-20T01:10:59.447Z,99348.00
2019-06-20T01:16:02.719Z,99352.38
2019-06-20T01:21:05.976Z,99333.03
2019-06-20T01:26:09.193Z,99335.79
2019-06-20T01:31:12.496Z,99333.25
2019-06-20T01:36:15.782Z,99325.14
2019-06-20T01:41:19.003Z,99324.25
2019-06-20T01:46:22.237Z,99337.77
2019-06-20T01:51:25.457Z,99334.66
2019-06-20T01:56:28.697Z,99321.20
2019-06-20T02:01:31.934Z,99318.27
2019-06-20T02:06:35.199Z,99318.20
2019-06-20T02:11:38.391Z,99315.78
2019-06-20T02:16:41.634Z,99322.14
2019-06-20T02:21:44.869Z,99311.55
2019-06-20T02:26:48.089Z,99322.03
2019-06-20T02:31:51.360Z,99313.80
2019-06-20T02:36:54.615Z,99327.77
2019-06-20T02:41:57.814Z,99314.37
2019-06-20T02:47:01.057Z,99316.58
2019-06-20T02:52:04.285Z,99342.28
2019-06-20T02:57:07.521Z,99335.02
2019-06-20T03:02:10.749Z,99338.70
2019-06-20T03:07:14.035Z,99316.91
2019-06-20T03:12:17.260Z,99340.00
2019-06-20T03:17:20.544Z,99345.20
2019-06-20T03:22:23.736Z,99343.73
2019-06-20T03:27:26.974Z,99342.75
2019-06-20T03:32:30.238Z,99346.82
2019-06-20T03:37:33.429Z,99356.48
2019-06-20T03:42:36.678Z,99380.72
2019-06-20T03:47:39.953Z,99370.91
2019-06-20T03:52:43.182Z,99382.39
2019-06-20T03:57:46.422Z,99363.73
2019-06-20T04:02:49.651Z,99355.53
2019-06-20T04:07:52.879Z,99359.28
2019-06-20T04:12:56.101Z,99356.56
2019-06-20T04:17:59.409Z,99350.70
2019-06-20T04:23:02.634Z,99357.80
2019-06-20T04:28:05.861Z,99389.97
2019-06-20T04:33:09.097Z,99390.31
2019-06-20T04:38:12.308Z,99370.11
2019-06-20T04:43:15.564Z,99404.19
2019-06-20T04:48:18.856Z,99413.59
2019-06-20T04:53:22.113Z,99448.26
2019-06-20T04:58:25.323Z,99461.20
2019-06-20T05:03:28.548Z,99461.20
2019-06-20T05:08:31.774Z,99471.84
2019-06-20T05:13:35.019Z,99484.54
2019-06-20T05:18:38.242Z,99513.14
2019-06-20T05:23:41.477Z,99507.80
2019-06-20T05:28:44.702Z,99510.76
2019-06-20T05:33:47.954Z,99529.17
2019-06-20T05:38:51.172Z,99541.05
2019-06-20T05:43:54.399Z,99558.05
2019-06-20T05:48:57.629Z,99561.59
2019-06-20T05:54:00.859Z,99571.53
2019-06-20T05:59:04.071Z,99554.80
2019-06-20T06:04:07.297Z,99559.40
2019-06-20T06:09:10.513Z,99561.13
2019-06-20T06:14:13.920Z,99591.76
2019-06-20T06:19:17.173Z,99597.57
2019-06-20T06:24:20.417Z,99598.59
2019-06-20T06:29:23.613Z,99594.90
2019-06-20T06:34:26.828Z,99599.83
2019-06-20T06:39:30.062Z,99601.09
2019-06-20T06:44:33.324Z,99598.22
2019-06-20T06:49:36.515Z,99581.14
2019-06-20T06:54:39.728Z,99583.67
2019-06-20T06:59:42.954Z,99586.84
2019-06-20T07:04:46.177Z,99592.71
2019-06-20T07:09:49.422Z,99583.06
2019-06-20T07:14:52.638Z,99579.73
2019-06-20T07:19:55.872Z,99579.73
2019-06-20T07:25:00.221Z,99572.33
2019-06-20T07:30:04.929Z,99567.59
2019-06-20T07:35:08.931Z,99559.03
2019-06-20T07:40:12.236Z,99572.30
2019-06-20T07:45:16.840Z,99575.54
2019-06-20T07:50:20.070Z,99576.98
2019-06-20T07:55:23.346Z,99565.08
2019-06-20T08:00:26.532Z,99596.70
2019-06-20T08:05:29.751Z,99621.45
2019-06-20T08:10:32.980Z,99620.64
2019-06-20T08:15:36.215Z,99627.53
2019-06-20T08:20:39.431Z,99633.50
2019-06-20T08:25:42.682Z,99589.97
2019-06-20T08:30:45.927Z,99579.49
2019-06-20T08:35:49.187Z,99593.22
2019-06-20T08:40:52.459Z,99609.31
2019-06-20T08:45:56.634Z,99591.52
2019-06-20T08:51:00.623Z,99591.52
2019-06-20T08:56:05.417Z,99604.43
2019-06-20T09:06:12.004Z,99606.02
2019-06-20T09:11:15.342Z,99619.83
2019-06-20T09:16:24.515Z,99618.70
2019-06-20T09:21:23.506Z,99613.44
2019-06-20T09:26:26.773Z,99604.02
2019-06-20T09:31:29.968Z,99615.03
2019-06-20T09:36:33.189Z,99615.83
2019-06-20T09:41:36.517Z,99608.26
2019-06-20T09:46:39.782Z,99616.17
2019-06-20T09:51:43.003Z,99617.77
2019-06-20T09:56:48.498Z,99629.01
2019-06-20T10:01:52.080Z,99622.68
2019-06-20T10:06:56.672Z,99627.32
2019-06-20T10:12:00.100Z,99629.81
2019-06-20T10:17:03.380Z,99626.16
2019-06-20T10:22:06.648Z,99626.70
2019-06-20T10:27:09.861Z,99624.97
2019-06-20T10:32:13.213Z,99624.97
2019-06-20T10:37:16.439Z,99619.66
2019-06-20T10:42:19.661Z,99620.77
2019-06-20T10:47:32.353Z,99620.77
2019-06-20T10:52:27.833Z,99627.22
2019-06-20T10:57:31.036Z,99633.54
2019-06-20T11:02:34.303Z,99640.05
2019-06-20T11:07:38.899Z,99623.12
2019-06-20T11:12:47.582Z,99630.02
2019-06-20T11:17:48.443Z,99634.05
2019-06-20T11:22:51.952Z,99627.42
2019-06-20T11:27:55.160Z,99594.36
2019-06-20T11:32:58.441Z,99594.36
2019-06-20T11:38:01.661Z,99609.71
2019-06-20T11:43:04.877Z,99591.96
2019-06-20T11:48:08.106Z,99601.69
2019-06-20T11:53:11.329Z,99594.98
2019-06-20T11:58:14.737Z,99602.48
2019-06-20T12:03:17.972Z,99602.48
2019-06-20T12:08:21.248Z,99597.48
2019-06-20T12:13:24.487Z,99612.72
2019-06-20T12:18:27.695Z,99565.80
2019-06-20T12:23:30.914Z,99585.65
2019-06-20T12:28:34.124Z,99600.51
2019-06-20T12:33:39.090Z,99602.41
2019-06-20T12:38:43.256Z,99604.03
2019-06-20T12:43:46.722Z,99611.89
2019-06-20T12:48:49.935Z,99623.72
2019-06-20T12:53:53.157Z,99619.06
2019-06-20T12:58:56.373Z,99615.80
2019-06-20T13:03:59.727Z,99624.10
2019-06-20T13:09:03.587Z,99610.09
2019-06-20T13:14:06.838Z,99599.62
2019-06-20T13:19:10.055Z,99605.62
2019-06-20T13:24:13.272Z,99609.79
2019-06-20T13:29:16.510Z,99608.38
2019-06-20T13:34:19.729Z,99616.27
2019-06-20T13:39:22.953Z,99610.58
2019-06-20T13:44:26.195Z,99609.23
2019-06-20T13:49:29.431Z,99610.41
2019-06-20T13:54:32.661Z,99610.86
2019-06-20T13:59:35.897Z,99611.99
2019-06-20T14:04:41.020Z,99600.52
2019-06-20T14:09:44.634Z,99590.58
2019-06-20T14:14:48.078Z,99590.65
2019-06-20T14:19:51.305Z,99572.48
2019-06-20T14:24:55.490Z,99575.58
2019-06-20T14:29:58.953Z,99565.06
2019-06-20T14:35:02.141Z,99562.89
2019-06-20T14:40:06.702Z,99560.06
2019-06-20T14:45:09.959Z,99552.75
2019-06-20T14:50:13.149Z,99545.90
2019-06-20T14:55:16.386Z,99550.16
2019-06-20T15:00:19.700Z,99549.54
2019-06-20T15:05:22.924Z,99545.88
2019-06-20T15:10:26.153Z,99541.03
2019-06-20T15:15:31.513Z,99535.03
2019-06-20T15:20:34.367Z,99529.20
2019-06-20T15:25:37.589Z,99533.70
2019-06-20T15:30:40.818Z,99536.88
2019-06-20T15:35:44.038Z,99533.21
2019-06-20T15:40:49.398Z,99521.58
2019-06-20T15:45:53.737Z,99509.98
2019-06-20T15:50:57.194Z,99504.78
2019-06-20T15:56:00.447Z,99504.97
2019-06-20T16:01:03.707Z,99503.55
2019-06-20T16:06:06.933Z,99498.11
2019-06-20T16:11:10.233Z,99494.39
2019-06-20T16:16:13.486Z,99502.70
2019-06-20T16:21:16.723Z,99509.65
2019-06-20T16:26:19.978Z,99513.02
2019-06-20T16:31:27.083Z,99523.82
2019-06-20T16:36:28.164Z,99524.59
2019-06-20T16:41:31.383Z,99527.31
2019-06-20T16:46:34.621Z,99533.38
2019-06-20T16:51:37.826Z,99530.03
2019-06-20T16:56:41.070Z,99535.50
2019-06-20T17:01:44.276Z,99552.07
2019-06-20T17:06:47.519Z,99553.56
2019-06-20T17:11:50.731Z,99542.95
2019-06-20T17:16:53.961Z,99526.36
2019-06-20T17:21:57.197Z,99534.21
2019-06-20T17:27:00.419Z,99541.38
2019-06-20T17:32:03.630Z,99556.36
2019-06-20T17:37:06.871Z,99559.39
2019-06-20T17:42:10.109Z,99563.09
2019-06-20T17:47:13.325Z,99563.09
2019-06-20T17:52:16.539Z,99553.20
2019-06-20T17:57:19.758Z,99561.20
2019-06-20T18:02:22.977Z,99562.62
2019-06-20T18:07:26.226Z,99580.48
2019-06-20T18:12:29.444Z,99589.78
2019-06-20T18:17:32.658Z,99573.69
2019-06-20T18:22:35.877Z,99583.03
2019-06-20T18:27:39.098Z,99587.48
2019-06-20T18:32:42.324Z,99584.79
2019-06-20T18:37:45.543Z,99601.06
2019-06-20T18:42:48.783Z,99609.12
2019-06-20T18:47:51.979Z,99606.92
2019-06-20T18:52:55.199Z,99620.22
2019-06-20T18:57:58.657Z,99623.19
2019-06-20T19:03:02.172Z,99627.36
2019-06-20T19:08:05.407Z,99629.53
2019-06-20T19:13:08.656Z,99635.33
2019-06-20T19:18:11.864Z,99657.36
2019-06-20T19:23:15.087Z,99651.51
2019-06-20T19:28:18.287Z,99658.77
2019-06-20T19:33:21.519Z,99663.38
2019-06-20T19:38:24.838Z,99667.05
2019-06-20T19:43:28.070Z,99673.36
2019-06-20T19:48:31.295Z,99674.47
2019-06-20T19:53:34.513Z,99666.47
2019-06-20T19:58:37.738Z,99674.22
2019-06-20T20:03:40.971Z,99700.53
2019-06-20T20:08:44.193Z,99708.22
2019-06-20T20:13:47.412Z,99700.14
2019-06-20T20:18:50.632Z,99700.14
2019-06-20T20:23:54.749Z,99708.20
2019-06-20T20:28:57.962Z,99705.23
2019-06-20T20:34:01.189Z,99736.38
2019-06-20T20:39:06.885Z,99759.22
2019-06-20T20:44:10.094Z,99808.39
2019-06-20T20:49:13.319Z,99816.12
2019-06-20T20:54:16.558Z,99803.20
2019-06-20T20:59:19.779Z,99755.44
2019-06-20T21:04:23.003Z,99789.55
2019-06-20T21:09:26.221Z,99777.70
2019-06-20T21:14:29.456Z,99810.66
2019-06-20T21:19:32.724Z,99821.95
2019-06-20T21:24:35.909Z,99838.77
2019-06-20T21:29:39.127Z,99825.64
2019-06-20T21:34:42.369Z,99821.20
2019-06-20T21:39:45.578Z,99821.20
2019-06-20T21:44:48.832Z,99847.09
2019-06-20T21:49:52.090Z,99827.84
2019-06-20T21:54:55.315Z,99834.48
2019-06-20T21:59:58.513Z,99827.80
2019-06-20T22:05:01.743Z,99827.80
2019-06-20T22:10:06.655Z,99817.42
2019-06-20T22:15:09.886Z,99811.94
2019-06-20T22:20:13.173Z,99806.12
2019-06-20T22:25:16.391Z,99805.56
2019-06-20T22:30:34.825Z,99811.94
2019-06-20T22:35:38.053Z,99830.63
2019-06-20T22:40:41.282Z,99834.22
2019-06-20T22:45:44.526Z,99838.58
2019-06-20T22:50:47.753Z,99845.77
2019-06-20T22:55:50.996Z,99840.00
2019-06-20T23:00:54.225Z,99844.39
2019-06-20T23:05:57.467Z,99841.91
2019-06-20T23:11:00.693Z,99854.30
2019-06-20T23:16:03.918Z,99847.72
2019-06-20T23:21:07.159Z,99848.27
2019-06-20T23:26:11.743Z,99849.33
2019-06-20T23:31:14.962Z,99851.53
2019-06-20T23:36:18.320Z,99863.63
2019-06-20T23:41:21.541Z,99867.23
2019-06-20T23:46:24.780Z,99864.48
2019-06-20T23:51:29.654Z,99869.42
2019-06-20T23:56:32.954Z,99856.20
